createdAt,value
2019-02-19T00:02:24.676Z,11.00
2019-02-19T00:04:52.985Z,10.95
2019-02-19T00:07:21.285Z,10.10
2019-02-19T00:09:49.578Z,8.58
2019-02-19T00:12:17.811Z,10.70
2019-02-19T00:14:46.139Z,9.50
2019-02-19T00:17:14.399Z,10.03
2019-02-19T00:19:42.729Z,12.25
2019-02-19T00:22:11.044Z,12.03
2019-02-19T00:24:39.399Z,8.58
2019-02-19T00:27:07.643Z,11.35
2019-02-19T00:29:35.932Z,7.40
2019-02-19T00:32:04.164Z,9.45
2019-02-19T00:34:32.550Z,9.23
2019-02-19T00:37:00.903Z,10.13
2019-02-19T00:39:29.128Z,8.85
2019-02-19T00:41:57.431Z,11.80
2019-02-19T00:44:25.701Z,8.75
2019-02-19T00:46:53.946Z,11.68
2019-02-19T00:49:22.162Z,11.78
2019-02-19T00:51:50.441Z,9.93
2019-02-19T00:54:18.890Z,13.65
2019-02-19T00:56:47.133Z,10.65
2019-02-19T00:59:15.442Z,10.15
2019-02-19T01:01:43.695Z,13.18
2019-02-19T01:04:11.964Z,14.70
2019-02-19T01:06:40.237Z,12.28
2019-02-19T01:09:08.655Z,12.23
2019-02-19T01:11:37.006Z,12.68
2019-02-19T01:14:05.287Z,12.18
2019-02-19T01:16:33.554Z,10.35
2019-02-19T01:19:01.802Z,10.65
2019-02-19T01:21:30.027Z,12.95
2019-02-19T01:23:58.289Z,10.88
2019-02-19T01:26:26.547Z,10.28
2019-02-19T01:28:54.825Z,11.00
2019-02-19T01:31:23.037Z,10.60
2019-02-19T01:33:51.278Z,9.73
2019-02-19T01:36:19.536Z,13.80
2019-02-19T01:38:47.842Z,13.93
2019-02-19T01:41:16.108Z,8.13
2019-02-19T01:43:44.363Z,10.65
2019-02-19T01:46:12.625Z,11.85
2019-02-19T01:48:40.986Z,12.20
2019-02-19T01:51:11.585Z,10.60
2019-02-19T01:53:39.870Z,8.93
2019-02-19T01:56:08.118Z,10.38
2019-02-19T01:58:36.397Z,9.98
2019-02-19T02:01:04.649Z,12.25
2019-02-19T02:03:32.878Z,10.58
2019-02-19T02:06:01.135Z,12.07
2019-02-19T02:08:29.464Z,11.28
2019-02-19T02:10:57.763Z,12.03
2019-02-19T02:13:25.993Z,8.28
2019-02-19T02:15:54.266Z,11.78
2019-02-19T02:18:22.594Z,9.05
2019-02-19T02:20:50.863Z,11.40
2019-02-19T02:23:19.120Z,7.92
2019-02-19T02:25:47.345Z,11.28
2019-02-19T02:28:15.605Z,10.00
2019-02-19T02:30:43.911Z,11.30
2019-02-19T02:33:12.170Z,11.00
2019-02-19T02:35:40.411Z,14.13
2019-02-19T02:38:08.649Z,11.05
2019-02-19T02:40:36.902Z,14.53
2019-02-19T02:43:05.152Z,8.83
2019-02-19T02:45:33.411Z,14.28
2019-02-19T02:48:01.634Z,14.35
2019-02-19T02:50:29.870Z,10.38
2019-02-19T02:52:58.144Z,15.65
2019-02-19T02:55:26.374Z,14.75
2019-02-19T02:57:54.640Z,9.08
2019-02-19T03:00:22.885Z,10.05
2019-02-19T03:02:51.163Z,12.35
2019-02-19T03:05:19.488Z,11.15
2019-02-19T03:07:51.787Z,13.93
2019-02-19T03:10:20.099Z,9.00
2019-02-19T03:12:48.367Z,13.93
2019-02-19T03:15:16.898Z,11.75
2019-02-19T03:17:45.136Z,13.13
2019-02-19T03:20:13.406Z,12.65
2019-02-19T03:22:41.650Z,12.45
2019-02-19T03:25:09.906Z,11.55
2019-02-19T03:27:38.208Z,12.85
2019-02-19T03:30:09.296Z,10.28
2019-02-19T03:32:37.581Z,14.03
2019-02-19T03:35:05.988Z,14.63
2019-02-19T03:37:34.238Z,14.58
2019-02-19T03:40:02.481Z,9.10
2019-02-19T03:42:30.730Z,10.28
2019-02-19T03:44:58.983Z,10.50
2019-02-19T03:47:27.225Z,14.65
2019-02-19T03:49:55.533Z,11.85
2019-02-19T03:52:23.924Z,12.15
2019-02-19T03:54:52.206Z,11.57
2019-02-19T03:57:20.476Z,11.30
2019-02-19T03:59:48.759Z,11.83
2019-02-19T04:02:17.310Z,12.75
2019-02-19T04:04:45.623Z,11.75
2019-02-19T04:07:14.127Z,11.68
2019-02-19T04:09:42.368Z,11.30
2019-02-19T04:12:10.663Z,11.85
2019-02-19T04:14:38.970Z,16.27
2019-02-19T04:17:07.227Z,13.20
2019-02-19T04:19:35.474Z,10.35
2019-02-19T04:22:03.716Z,13.30
2019-02-19T04:24:32.130Z,14.78
2019-02-19T04:27:00.639Z,15.00
2019-02-19T04:29:29.021Z,16.55
2019-02-19T04:31:57.475Z,13.43
2019-02-19T04:34:25.734Z,13.25
2019-02-19T04:36:54.026Z,9.98
2019-02-19T04:39:22.298Z,11.30
2019-02-19T04:41:50.571Z,13.00
2019-02-19T04:44:18.856Z,13.00
2019-02-19T04:46:47.117Z,12.68
2019-02-19T04:49:15.382Z,12.93
2019-02-19T04:51:43.624Z,11.95
2019-02-19T04:54:11.893Z,11.80
2019-02-19T04:56:40.139Z,15.70
2019-02-19T04:59:08.402Z,11.83
2019-02-19T05:01:36.701Z,14.15
2019-02-19T05:04:05.076Z,9.23
2019-02-19T05:06:33.346Z,13.18
2019-02-19T05:09:01.615Z,11.50
2019-02-19T05:11:29.889Z,11.08
2019-02-19T05:13:58.166Z,14.23
2019-02-19T05:16:45.903Z,15.98
2019-02-19T05:19:14.175Z,12.65
2019-02-19T05:21:42.435Z,11.65
2019-02-19T05:24:10.676Z,14.55
2019-02-19T05:26:39.317Z,10.85
2019-02-19T05:29:07.605Z,19.37
2019-02-19T05:31:35.885Z,13.88
2019-02-19T05:34:04.148Z,8.23
2019-02-19T05:36:32.424Z,13.03
2019-02-19T05:39:00.695Z,9.00
2019-02-19T05:41:28.952Z,10.85
2019-02-19T05:43:57.221Z,12.82
2019-02-19T05:46:25.444Z,14.85
2019-02-19T05:48:53.709Z,12.15
2019-02-19T05:51:22.032Z,11.85
2019-02-19T05:53:50.362Z,13.08
2019-02-19T05:56:18.666Z,13.60
2019-02-19T05:58:47.011Z,10.82
2019-02-19T06:01:15.240Z,13.83
2019-02-19T06:03:43.514Z,10.75
2019-02-19T06:06:11.784Z,11.78
2019-02-19T06:08:40.060Z,8.85
2019-02-19T06:11:08.468Z,14.10
2019-02-19T06:13:36.781Z,12.28
2019-02-19T06:16:05.212Z,9.95
2019-02-19T06:18:33.526Z,11.85
2019-02-19T06:21:01.825Z,9.10
2019-02-19T06:23:30.095Z,9.65
2019-02-19T06:25:58.369Z,12.90
2019-02-19T06:28:26.644Z,9.35
2019-02-19T06:30:54.906Z,15.28
2019-02-19T06:33:23.320Z,11.90
2019-02-19T06:35:51.575Z,11.53
2019-02-19T06:38:19.832Z,13.28
2019-02-19T06:40:48.050Z,15.08
2019-02-19T06:43:16.302Z,12.93
2019-02-19T06:45:44.577Z,14.03
2019-02-19T06:48:12.860Z,11.08
2019-02-19T06:50:41.137Z,16.77
2019-02-19T06:53:09.449Z,14.90
2019-02-19T06:55:37.712Z,11.68
2019-02-19T06:58:06.531Z,12.78
2019-02-19T07:00:35.012Z,12.05
2019-02-19T07:03:07.701Z,13.38
2019-02-19T07:05:35.951Z,21.05
2019-02-19T07:08:04.219Z,12.25
2019-02-19T07:10:45.171Z,13.68
2019-02-19T07:13:13.441Z,14.83
2019-02-19T07:15:41.762Z,13.13
2019-02-19T07:18:10.002Z,17.45
2019-02-19T07:20:38.226Z,18.60
2019-02-19T07:23:06.506Z,17.37
2019-02-19T07:25:35.835Z,13.13
2019-02-19T07:28:04.058Z,16.45
2019-02-19T07:30:32.305Z,14.25
2019-02-19T07:33:00.555Z,18.95
2019-02-19T07:35:28.821Z,21.05
2019-02-19T07:37:57.067Z,13.48
2019-02-19T07:40:25.343Z,15.15
2019-02-19T07:42:53.644Z,19.73
2019-02-19T07:45:21.909Z,16.65
2019-02-19T07:47:50.231Z,12.50
2019-02-19T07:50:18.478Z,13.10
2019-02-19T07:52:46.786Z,13.40
2019-02-19T07:55:15.103Z,14.13
2019-02-19T07:57:43.378Z,11.33
2019-02-19T08:00:13.139Z,17.70
2019-02-19T08:02:41.450Z,16.87
2019-02-19T08:05:09.812Z,14.70
2019-02-19T08:07:38.048Z,13.48
2019-02-19T08:10:08.872Z,13.30
2019-02-19T08:12:37.225Z,17.62
2019-02-19T08:15:08.226Z,16.45
2019-02-19T08:17:36.451Z,13.98
2019-02-19T08:20:14.915Z,13.40
2019-02-19T08:22:35.874Z,14.40
2019-02-19T08:25:04.790Z,17.98
2019-02-19T08:27:33.029Z,15.25
2019-02-19T08:30:01.313Z,15.30
2019-02-19T08:32:29.569Z,14.38
2019-02-19T08:34:57.857Z,15.28
2019-02-19T08:37:26.074Z,16.48
2019-02-19T08:39:54.339Z,15.98
2019-02-19T08:42:22.704Z,16.85
2019-02-19T08:44:50.995Z,18.67
2019-02-19T08:47:19.262Z,13.85
2019-02-19T08:49:47.511Z,16.37
2019-02-19T08:52:15.802Z,14.68
2019-02-19T08:54:44.062Z,17.92
2019-02-19T08:57:12.301Z,12.70
2019-02-19T08:59:40.602Z,17.80
2019-02-19T09:02:08.815Z,16.10
2019-02-19T09:04:37.068Z,15.70
2019-02-19T09:07:05.415Z,19.70
2019-02-19T09:09:33.724Z,17.07
2019-02-19T09:12:02.013Z,16.50
2019-02-19T09:14:30.282Z,17.77
2019-02-19T09:16:58.599Z,15.40
2019-02-19T09:19:26.862Z,21.05
2019-02-19T09:21:55.200Z,21.07
2019-02-19T09:24:23.475Z,16.42
2019-02-19T09:26:51.779Z,18.00
2019-02-19T09:29:20.008Z,21.15
2019-02-19T09:31:48.236Z,22.87
2019-02-19T09:34:16.677Z,19.40
2019-02-19T09:36:44.915Z,18.90
2019-02-19T09:39:13.288Z,20.12
2019-02-19T09:41:41.537Z,22.27
2019-02-19T09:44:09.916Z,16.77
2019-02-19T09:46:38.197Z,20.37
2019-02-19T09:49:06.555Z,15.98
2019-02-19T09:51:34.920Z,23.05
2019-02-19T09:54:03.146Z,22.17
2019-02-19T09:56:31.503Z,16.60
2019-02-19T09:58:59.838Z,19.45
2019-02-19T10:01:28.430Z,23.27
2019-02-19T10:03:56.802Z,16.45
2019-02-19T10:06:25.137Z,17.77
2019-02-19T10:08:53.438Z,23.40
2019-02-19T10:11:21.672Z,22.87
2019-02-19T10:13:50.057Z,22.07
2019-02-19T10:16:18.273Z,18.57
2019-02-19T10:18:46.625Z,21.25
2019-02-19T10:21:14.857Z,19.40
2019-02-19T10:23:43.157Z,19.00
2019-02-19T10:26:11.437Z,18.52
2019-02-19T10:28:39.707Z,20.40
2019-02-19T10:31:07.960Z,24.90
2019-02-19T10:33:36.269Z,23.65
2019-02-19T10:36:04.590Z,22.80
2019-02-19T10:38:32.866Z,20.95
2019-02-19T10:41:01.200Z,19.27
2019-02-19T10:43:29.563Z,21.23
2019-02-19T10:45:57.874Z,23.95
2019-02-19T10:48:26.141Z,19.80
2019-02-19T10:50:54.395Z,19.00
2019-02-19T10:53:22.638Z,18.60
2019-02-19T10:55:50.900Z,20.80
2019-02-19T10:58:38.578Z,20.25
2019-02-19T11:01:06.820Z,20.43
2019-02-19T11:03:35.158Z,21.55
2019-02-19T11:06:03.419Z,21.20
2019-02-19T11:08:31.692Z,20.43
2019-02-19T11:11:00.047Z,22.00
2019-02-19T11:13:28.327Z,22.20
2019-02-19T11:15:56.583Z,18.30
2019-02-19T11:18:28.374Z,23.42
2019-02-19T11:20:54.835Z,21.87
2019-02-19T11:23:23.129Z,19.50
2019-02-19T11:25:51.362Z,17.73
2019-02-19T11:28:19.634Z,18.85
2019-02-19T11:30:47.887Z,20.20
2019-02-19T11:33:16.164Z,20.05
2019-02-19T11:35:44.468Z,18.12
2019-02-19T11:38:12.744Z,18.25
2019-02-19T11:40:41.362Z,19.67
2019-02-19T11:43:09.627Z,15.83
2019-02-19T11:45:37.882Z,17.20
2019-02-19T11:48:06.333Z,20.45
2019-02-19T11:50:34.634Z,18.77
2019-02-19T11:53:22.366Z,16.50
2019-02-19T11:55:50.816Z,21.50
2019-02-19T11:58:19.078Z,16.62
2019-02-19T12:00:47.350Z,21.10
2019-02-19T12:03:15.592Z,15.23
2019-02-19T12:05:43.869Z,13.10
2019-02-19T12:08:12.115Z,15.35
2019-02-19T12:10:40.366Z,16.40
2019-02-19T12:13:08.622Z,15.53
2019-02-19T12:15:36.973Z,17.60
2019-02-19T12:18:05.205Z,17.30
2019-02-19T12:20:33.529Z,16.12
2019-02-19T12:23:01.812Z,14.55
2019-02-19T12:25:30.038Z,13.53
2019-02-19T12:27:58.333Z,17.73
2019-02-19T12:30:26.570Z,20.08
2019-02-19T12:32:54.831Z,15.48
2019-02-19T12:35:23.154Z,18.60
2019-02-19T12:37:51.399Z,12.90
2019-02-19T12:40:19.680Z,12.73
2019-02-19T12:42:47.925Z,10.58
2019-02-19T12:45:16.251Z,15.83
2019-02-19T12:47:44.549Z,13.08
2019-02-19T12:50:14.985Z,14.60
2019-02-19T12:52:43.337Z,12.55
2019-02-19T12:55:11.678Z,11.25
2019-02-19T12:57:39.968Z,10.55
2019-02-19T13:00:16.530Z,10.70
2019-02-19T13:02:44.914Z,9.65
2019-02-19T13:05:14.612Z,15.30
2019-02-19T13:07:42.857Z,16.02
2019-02-19T13:10:12.868Z,13.45
2019-02-19T13:12:41.181Z,14.03
2019-02-19T13:15:16.731Z,9.63
2019-02-19T13:17:45.128Z,13.98
2019-02-19T13:20:14.485Z,14.25
2019-02-19T13:22:42.784Z,14.43
2019-02-19T13:25:11.598Z,15.40
2019-02-19T13:27:39.875Z,15.55
2019-02-19T13:30:31.918Z,21.45
2019-02-19T13:33:00.208Z,16.17
2019-02-19T13:35:28.429Z,13.43
2019-02-19T13:37:56.705Z,13.50
2019-02-19T13:40:24.986Z,14.78
2019-02-19T13:42:53.234Z,15.72
2019-02-19T13:45:21.520Z,13.70
2019-02-19T13:47:49.786Z,14.80
2019-02-19T13:50:21.331Z,12.15
2019-02-19T13:53:06.334Z,14.75
2019-02-19T13:55:36.258Z,14.53
2019-02-19T13:58:04.599Z,11.95
2019-02-19T14:00:34.513Z,12.00
2019-02-19T14:03:03.322Z,12.55
2019-02-19T14:05:31.587Z,11.73
2019-02-19T14:07:59.814Z,15.25
2019-02-19T14:10:28.193Z,14.33
2019-02-19T14:12:56.424Z,13.30
2019-02-19T14:16:01.927Z,14.95
2019-02-19T14:18:50.423Z,17.65
2019-02-19T14:21:29.234Z,16.57
2019-02-19T14:24:05.389Z,13.98
2019-02-19T14:26:35.343Z,15.30
2019-02-19T14:29:11.006Z,10.93
2019-02-19T14:31:49.702Z,6.08
2019-02-19T14:34:22.606Z,6.30
2019-02-19T14:37:01.474Z,7.83
2019-02-19T14:39:31.399Z,5.53
2019-02-19T14:42:03.932Z,9.60
2019-02-19T14:44:33.840Z,4.87
2019-02-19T14:47:30.654Z,6.55
2019-02-19T14:50:16.751Z,7.95
2019-02-19T14:52:53.129Z,8.40
2019-02-19T14:55:32.130Z,7.37
2019-02-19T14:58:13.955Z,7.28
2019-02-19T15:01:00.333Z,7.05
2019-02-19T15:03:46.816Z,10.95
2019-02-19T15:06:25.809Z,6.47
2019-02-19T15:08:55.798Z,11.57
2019-02-19T15:11:34.602Z,5.10
2019-02-19T15:14:20.511Z,6.62
2019-02-19T15:17:06.755Z,6.05
2019-02-19T15:25:18.812Z,5.30
2019-02-19T15:27:55.004Z,10.72
2019-02-19T15:33:25.617Z,5.55
2019-02-19T15:35:55.562Z,8.38
2019-02-19T15:38:31.621Z,7.90
2019-02-19T15:41:16.714Z,8.28
2019-02-19T15:43:49.542Z,7.83
2019-02-19T15:46:19.492Z,8.95
2019-02-19T15:48:55.457Z,8.68
2019-02-19T15:51:34.598Z,8.73
2019-02-19T15:54:16.831Z,12.03
2019-02-19T15:56:55.458Z,8.55
2019-02-19T15:59:25.363Z,8.23
2019-02-19T16:02:10.314Z,8.25
2019-02-19T16:04:40.236Z,8.43
2019-02-19T16:07:15.958Z,7.17
2019-02-19T16:09:45.869Z,7.10
2019-02-19T16:12:15.769Z,7.30
2019-02-19T16:14:54.203Z,8.83
2019-02-19T16:17:24.120Z,6.78
2019-02-19T16:19:57.037Z,7.45
2019-02-19T16:22:28.594Z,7.70
2019-02-19T16:25:10.741Z,8.65
2019-02-19T16:27:43.771Z,7.72
2019-02-19T16:30:13.809Z,10.53
2019-02-19T16:32:43.729Z,4.83
2019-02-19T16:37:56.649Z,7.62
2019-02-19T16:40:26.606Z,5.85
2019-02-19T16:42:59.215Z,6.75
2019-02-19T16:45:29.117Z,4.92
2019-02-19T16:48:10.991Z,7.10
2019-02-19T16:50:48.018Z,5.53
2019-02-19T16:53:17.904Z,9.88
2019-02-19T16:56:04.477Z,7.78
2019-02-19T17:01:26.324Z,9.68
2019-02-19T17:04:03.456Z,6.15
2019-02-19T17:06:52.286Z,11.33
2019-02-19T17:12:22.588Z,6.28
2019-02-19T17:14:55.499Z,9.40
2019-02-19T17:17:44.272Z,7.70
2019-02-19T17:20:28.917Z,8.55
2019-02-19T17:22:51.653Z,4.62
2019-02-19T17:25:24.291Z,10.43
2019-02-19T17:27:54.195Z,11.30
2019-02-19T17:30:24.139Z,8.10
2019-02-19T17:32:57.156Z,7.78
2019-02-19T17:38:14.238Z,4.83
2019-02-19T17:40:36.516Z,6.75
2019-02-19T17:43:12.330Z,7.10
2019-02-19T17:45:55.493Z,9.20
2019-02-19T17:48:34.712Z,6.67
2019-02-19T17:51:04.665Z,5.25
2019-02-19T17:53:34.622Z,7.87
2019-02-19T17:56:16.321Z,7.58
2019-02-19T17:58:55.183Z,8.95
2019-02-19T18:01:27.965Z,13.98
2019-02-19T18:03:59.386Z,5.90
2019-02-19T18:06:29.411Z,8.18
2019-02-19T18:08:59.370Z,7.50
2019-02-19T18:11:32.137Z,6.58
2019-02-19T18:14:02.063Z,6.92
2019-02-19T18:16:38.012Z,8.93
2019-02-19T18:19:06.333Z,12.85
2019-02-19T18:21:34.608Z,11.88
2019-02-19T18:24:02.895Z,7.35
2019-02-19T18:26:31.305Z,10.30
2019-02-19T18:28:59.739Z,10.53
2019-02-19T18:31:27.991Z,11.33
2019-02-19T18:33:56.320Z,9.03
2019-02-19T18:36:24.589Z,8.50
2019-02-19T18:38:52.852Z,11.28
2019-02-19T18:41:22.762Z,6.92
2019-02-19T18:43:51.007Z,10.93
2019-02-19T18:46:20.354Z,9.38
2019-02-19T18:48:48.603Z,9.73
2019-02-19T18:51:17.117Z,9.15
2019-02-19T18:53:45.436Z,10.63
2019-02-19T18:56:13.736Z,9.75
2019-02-19T18:58:42.007Z,7.67
2019-02-19T19:01:10.280Z,11.88
2019-02-19T19:03:38.574Z,11.08
2019-02-19T19:06:06.833Z,9.43
2019-02-19T19:08:35.140Z,12.75
2019-02-19T19:11:03.420Z,19.50
2019-02-19T19:13:31.763Z,12.63
2019-02-19T19:16:00.086Z,12.65
2019-02-19T19:18:28.419Z,16.25
2019-02-19T19:20:56.692Z,13.13
2019-02-19T19:23:25.093Z,11.88
2019-02-19T19:25:53.371Z,15.08
2019-02-19T19:28:21.655Z,16.62
2019-02-19T19:30:49.911Z,15.10
2019-02-19T19:33:18.180Z,15.28
2019-02-19T19:35:46.474Z,14.20
2019-02-19T19:38:14.812Z,13.35
2019-02-19T19:40:43.128Z,15.35
2019-02-19T19:43:11.388Z,12.68
2019-02-19T19:45:39.670Z,13.05
2019-02-19T19:48:07.911Z,17.35
2019-02-19T19:50:36.232Z,18.50
2019-02-19T19:53:04.646Z,16.23
2019-02-19T19:55:33.181Z,16.15
2019-02-19T19:58:06.162Z,13.50
2019-02-19T20:03:02.089Z,14.33
2019-02-19T20:05:30.325Z,19.02
2019-02-19T20:07:58.677Z,12.75
2019-02-19T20:10:26.933Z,14.65
2019-02-19T20:12:55.214Z,14.98
2019-02-19T20:15:23.563Z,12.47
2019-02-19T20:17:51.889Z,17.02
2019-02-19T20:20:20.218Z,16.73
2019-02-19T20:22:48.954Z,14.78
2019-02-19T20:25:17.357Z,14.47
2019-02-19T20:27:48.631Z,12.20
2019-02-19T20:30:16.992Z,10.80
2019-02-19T20:32:45.356Z,20.72
2019-02-19T20:35:13.823Z,16.70
2019-02-19T20:37:42.132Z,15.63
2019-02-19T20:40:11.706Z,12.75
2019-02-19T20:42:39.980Z,21.82
2019-02-19T20:45:12.467Z,18.27
2019-02-19T20:47:40.799Z,19.23
2019-02-19T20:50:11.477Z,17.77
2019-02-19T20:52:39.734Z,16.73
2019-02-19T20:55:09.760Z,16.70
2019-02-19T20:57:38.036Z,20.25
2019-02-19T21:00:17.429Z,13.40
2019-02-19T21:02:45.719Z,17.87
2019-02-19T21:05:14.032Z,17.80
2019-02-19T21:07:42.309Z,19.15
2019-02-19T21:10:15.803Z,15.55
2019-02-19T21:12:44.075Z,13.60
2019-02-19T21:15:13.867Z,21.33
2019-02-19T21:17:42.222Z,19.30
2019-02-19T21:20:11.531Z,16.77
2019-02-19T21:22:39.937Z,18.23
2019-02-19T21:25:10.638Z,12.70
2019-02-19T21:27:38.937Z,15.03
2019-02-19T21:30:18.174Z,15.95
2019-02-19T21:32:47.029Z,13.80
2019-02-19T21:35:15.370Z,13.05
2019-02-19T21:37:43.791Z,16.27
2019-02-19T21:40:13.553Z,11.83
2019-02-19T21:42:41.809Z,19.05
2019-02-19T21:45:14.103Z,15.35
2019-02-19T21:47:42.371Z,15.43
2019-02-19T21:50:15.840Z,16.30
2019-02-19T21:52:44.369Z,16.77
2019-02-19T21:55:12.964Z,14.28
2019-02-19T21:57:41.285Z,14.73
2019-02-19T22:00:15.419Z,16.02
2019-02-19T22:02:43.724Z,16.57
2019-02-19T22:05:12.082Z,13.18
2019-02-19T22:07:40.356Z,12.73
2019-02-19T22:10:10.451Z,15.53
2019-02-19T22:12:38.784Z,15.03
2019-02-19T22:15:09.640Z,15.98
2019-02-19T22:17:37.926Z,13.95
2019-02-19T22:20:13.754Z,17.95
2019-02-19T22:22:42.063Z,17.48
2019-02-19T22:25:11.979Z,17.02
2019-02-19T22:27:40.601Z,14.83
2019-02-19T22:30:09.368Z,16.30
2019-02-19T22:32:37.676Z,12.15
2019-02-19T22:35:07.552Z,14.90
2019-02-19T22:37:35.833Z,16.90
2019-02-19T22:40:08.186Z,16.23
2019-02-19T22:42:36.506Z,14.35
2019-02-19T22:45:07.703Z,12.85
2019-02-19T22:47:35.998Z,15.45
2019-02-19T22:50:07.054Z,13.45
2019-02-19T22:52:35.505Z,14.63
2019-02-19T22:55:08.942Z,18.77
2019-02-19T22:57:43.114Z,15.08
2019-02-19T23:00:24.463Z,16.00
2019-02-19T23:02:52.793Z,19.40
2019-02-19T23:05:21.099Z,12.65
2019-02-19T23:07:49.428Z,17.05
2019-02-19T23:10:17.681Z,16.60
2019-02-19T23:12:45.992Z,16.48
2019-02-19T23:15:14.299Z,14.93
2019-02-19T23:17:42.548Z,16.20
2019-02-19T23:20:10.886Z,15.65
2019-02-19T23:22:39.178Z,13.28
2019-02-19T23:25:07.504Z,19.00
2019-02-19T23:27:35.853Z,22.05
2019-02-19T23:30:05.147Z,14.05
2019-02-19T23:32:33.427Z,17.45
2019-02-19T23:35:11.978Z,20.75
2019-02-19T23:37:40.217Z,17.32
2019-02-19T23:40:08.830Z,18.67
2019-02-19T23:42:37.084Z,17.07
2019-02-19T23:45:07.469Z,20.55
2019-02-19T23:47:35.718Z,16.95
2019-02-19T23:50:08.043Z,21.85
2019-02-19T23:52:36.384Z,20.43
2019-02-19T23:55:06.678Z,19.10
2019-02-19T23:57:34.991Z,15.05
